sensor_id;sensor_type;location;lat;lon;timestamp;P1;durP1;ratioP1;P2;durP2;ratioP2
10154;SDS011;5118;48.570;7.916;2022-09-03T00:00:15;4.73;;;3.50;;
10154;SDS011;5118;48.570;7.916;2022-09-03T00:02:46;3.70;;;3.13;;
10154;SDS011;5118;48.570;7.916;2022-09-03T00:05:21;3.57;;;3.27;;
10154;SDS011;5118;48.570;7.916;2022-09-03T00:07:55;4.53;;;3.30;;
10154;SDS011;5118;48.570;7.916;2022-09-03T00:10:32;4.57;;;3.60;;
10154;SDS011;5118;48.570;7.916;2022-09-03T00:13:08;3.67;;;3.37;;
10154;SDS011;5118;48.570;7.916;2022-09-03T00:15:44;3.83;;;3.37;;
10154;SDS011;5118;48.570;7.916;2022-09-03T00:18:15;3.70;;;3.40;;
10154;SDS011;5118;48.570;7.916;2022-09-03T00:20:48;3.73;;;3.43;;
10154;SDS011;5118;48.570;7.916;2022-09-03T00:23:21;4.10;;;3.80;;
10154;SDS011;5118;48.570;7.916;2022-09-03T00:25:54;5.10;;;3.60;;
10154;SDS011;5118;48.570;7.916;2022-09-03T00:28:29;4.87;;;3.90;;
10154;SDS011;5118;48.570;7.916;2022-09-03T00:31:19;4.40;;;3.90;;
10154;SDS011;5118;48.570;7.916;2022-09-03T00:33:53;3.90;;;3.60;;
10154;SDS011;5118;48.570;7.916;2022-09-03T00:36:27;4.23;;;3.83;;
10154;SDS011;5118;48.570;7.916;2022-09-03T00:39:02;5.00;;;3.90;;
10154;SDS011;5118;48.570;7.916;2022-09-03T00:41:34;6.37;;;3.90;;
10154;SDS011;5118;48.570;7.916;2022-09-03T00:44:13;6.40;;;4.17;;
10154;SDS011;5118;48.570;7.916;2022-09-03T00:46:59;4.13;;;3.80;;
10154;SDS011;5118;48.570;7.916;2022-09-03T00:49:40;4.50;;;4.10;;
10154;SDS011;5118;48.570;7.916;2022-09-03T00:52:22;4.70;;;4.00;;
10154;SDS011;5118;48.570;7.916;2022-09-03T00:55:02;4.53;;;4.13;;
10154;SDS011;5118;48.570;7.916;2022-09-03T00:57:39;4.13;;;3.83;;
10154;SDS011;5118;48.570;7.916;2022-09-03T01:00:14;4.23;;;3.83;;
10154;SDS011;5118;48.570;7.916;2022-09-03T01:02:54;5.13;;;4.00;;
10154;SDS011;5118;48.570;7.916;2022-09-03T01:05:47;4.00;;;3.70;;
10154;SDS011;5118;48.570;7.916;2022-09-03T01:08:30;5.00;;;4.10;;
10154;SDS011;5118;48.570;7.916;2022-09-03T01:11:16;4.43;;;4.00;;
10154;SDS011;5118;48.570;7.916;2022-09-03T01:13:49;5.67;;;3.80;;
10154;SDS011;5118;48.570;7.916;2022-09-03T01:16:29;4.20;;;3.80;;
10154;SDS011;5118;48.570;7.916;2022-09-03T01:19:10;4.47;;;4.07;;
10154;SDS011;5118;48.570;7.916;2022-09-03T01:22:01;4.00;;;3.70;;
10154;SDS011;5118;48.570;7.916;2022-09-03T01:24:53;4.77;;;4.20;;
10154;SDS011;5118;48.570;7.916;2022-09-03T01:27:40;5.50;;;4.10;;
10154;SDS011;5118;48.570;7.916;2022-09-03T01:30:17;4.87;;;4.00;;
10154;SDS011;5118;48.570;7.916;2022-09-03T01:32:51;6.93;;;4.30;;
10154;SDS011;5118;48.570;7.916;2022-09-03T01:35:26;5.27;;;4.33;;
10154;SDS011;5118;48.570;7.916;2022-09-03T01:38:04;4.40;;;4.00;;
10154;SDS011;5118;48.570;7.916;2022-09-03T01:40:45;4.77;;;3.90;;
10154;SDS011;5118;48.570;7.916;2022-09-03T01:43:28;5.63;;;4.00;;
10154;SDS011;5118;48.570;7.916;2022-09-03T01:46:12;4.47;;;4.07;;
10154;SDS011;5118;48.570;7.916;2022-09-03T01:48:48;4.70;;;4.30;;
10154;SDS011;5118;48.570;7.916;2022-09-03T01:51:27;4.63;;;4.17;;
10154;SDS011;5118;48.570;7.916;2022-09-03T01:54:05;4.27;;;3.87;;
10154;SDS011;5118;48.570;7.916;2022-09-03T01:56:52;4.83;;;4.27;;
10154;SDS011;5118;48.570;7.916;2022-09-03T02:00:03;4.97;;;3.70;;
10154;SDS011;5118;48.570;7.916;2022-09-03T02:02:39;4.80;;;4.40;;
10154;SDS011;5118;48.570;7.916;2022-09-03T02:05:10;4.70;;;4.20;;
10154;SDS011;5118;48.570;7.916;2022-09-03T02:07:41;4.40;;;4.00;;
10154;SDS011;5118;48.570;7.916;2022-09-03T02:10:12;4.67;;;4.27;;
10154;SDS011;5118;48.570;7.916;2022-09-03T02:12:44;4.63;;;3.90;;
10154;SDS011;5118;48.570;7.916;2022-09-03T02:15:17;4.57;;;4.17;;
10154;SDS011;5118;48.570;7.916;2022-09-03T02:17:51;5.77;;;4.40;;
10154;SDS011;5118;48.570;7.916;2022-09-03T02:20:24;5.13;;;4.13;;
10154;SDS011;5118;48.570;7.916;2022-09-03T02:22:55;4.60;;;4.20;;
10154;SDS011;5118;48.570;7.916;2022-09-03T02:25:28;5.03;;;4.53;;
10154;SDS011;5118;48.570;7.916;2022-09-03T02:27:58;5.07;;;4.50;;
10154;SDS011;5118;48.570;7.916;2022-09-03T02:30:28;5.37;;;4.80;;
10154;SDS011;5118;48.570;7.916;2022-09-03T02:32:58;5.57;;;5.00;;
10154;SDS011;5118;48.570;7.916;2022-09-03T02:35:27;6.00;;;5.40;;
10154;SDS011;5118;48.570;7.916;2022-09-03T02:37:56;5.53;;;5.07;;
10154;SDS011;5118;48.570;7.916;2022-09-03T02:40:35;6.03;;;5.53;;
10154;SDS011;5118;48.570;7.916;2022-09-03T02:43:03;6.93;;;6.23;;
10154;SDS011;5118;48.570;7.916;2022-09-03T02:45:35;7.80;;;5.57;;
10154;SDS011;5118;48.570;7.916;2022-09-03T02:48:08;6.57;;;6.00;;
10154;SDS011;5118;48.570;7.916;2022-09-03T02:50:41;6.30;;;5.70;;
10154;SDS011;5118;48.570;7.916;2022-09-03T02:53:10;6.60;;;6.00;;
10154;SDS011;5118;48.570;7.916;2022-09-03T02:55:38;6.27;;;5.67;;
10154;SDS011;5118;48.570;7.916;2022-09-03T02:58:09;5.87;;;5.27;;
10154;SDS011;5118;48.570;7.916;2022-09-03T03:00:38;6.17;;;5.57;;
10154;SDS011;5118;48.570;7.916;2022-09-03T03:03:06;6.23;;;5.03;;
10154;SDS011;5118;48.570;7.916;2022-09-03T03:05:40;5.70;;;5.10;;
10154;SDS011;5118;48.570;7.916;2022-09-03T03:08:11;4.87;;;4.40;;
10154;SDS011;5118;48.570;7.916;2022-09-03T03:10:42;4.70;;;4.30;;
10154;SDS011;5118;48.570;7.916;2022-09-03T03:13:11;5.50;;;4.30;;
10154;SDS011;5118;48.570;7.916;2022-09-03T03:15:40;4.77;;;4.30;;
10154;SDS011;5118;48.570;7.916;2022-09-03T03:18:11;4.37;;;3.97;;
10154;SDS011;5118;48.570;7.916;2022-09-03T03:20:40;4.63;;;4.23;;
10154;SDS011;5118;48.570;7.916;2022-09-03T03:23:08;4.30;;;3.97;;
10154;SDS011;5118;48.570;7.916;2022-09-03T03:25:37;5.27;;;4.20;;
10154;SDS011;5118;48.570;7.916;2022-09-03T03:28:06;5.10;;;4.60;;
10154;SDS011;5118;48.570;7.916;2022-09-03T03:30:36;4.47;;;4.00;;
10154;SDS011;5118;48.570;7.916;2022-09-03T03:33:05;5.23;;;4.60;;
10154;SDS011;5118;48.570;7.916;2022-09-03T03:35:35;4.50;;;4.10;;
10154;SDS011;5118;48.570;7.916;2022-09-03T03:38:04;4.90;;;4.50;;
10154;SDS011;5118;48.570;7.916;2022-09-03T03:40:32;5.23;;;4.47;;
10154;SDS011;5118;48.570;7.916;2022-09-03T03:43:02;5.73;;;5.00;;
10154;SDS011;5118;48.570;7.916;2022-09-03T03:45:31;6.03;;;4.53;;
10154;SDS011;5118;48.570;7.916;2022-09-03T03:47:59;4.93;;;4.30;;
10154;SDS011;5118;48.570;7.916;2022-09-03T03:50:28;5.20;;;4.50;;
10154;SDS011;5118;48.570;7.916;2022-09-03T03:52:59;6.00;;;4.53;;
10154;SDS011;5118;48.570;7.916;2022-09-03T03:55:28;5.77;;;4.77;;
10154;SDS011;5118;48.570;7.916;2022-09-03T03:58:00;5.53;;;4.60;;
10154;SDS011;5118;48.570;7.916;2022-09-03T04:00:29;5.30;;;4.80;;
10154;SDS011;5118;48.570;7.916;2022-09-03T04:03:03;5.23;;;4.60;;
10154;SDS011;5118;48.570;7.916;2022-09-03T04:05:32;5.07;;;4.57;;
10154;SDS011;5118;48.570;7.916;2022-09-03T04:08:02;5.17;;;4.67;;
10154;SDS011;5118;48.570;7.916;2022-09-03T04:10:31;5.57;;;4.73;;
10154;SDS011;5118;48.570;7.916;2022-09-03T04:13:00;5.67;;;5.07;;
10154;SDS011;5118;48.570;7.916;2022-09-03T04:15:28;8.87;;;4.70;;
10154;SDS011;5118;48.570;7.916;2022-09-03T04:17:57;4.93;;;4.53;;
10154;SDS011;5118;48.570;7.916;2022-09-03T04:20:26;5.20;;;4.80;;
10154;SDS011;5118;48.570;7.916;2022-09-03T04:22:54;6.47;;;4.87;;
10154;SDS011;5118;48.570;7.916;2022-09-03T04:25:28;5.37;;;4.57;;
10154;SDS011;5118;48.570;7.916;2022-09-03T04:27:57;5.10;;;4.63;;
10154;SDS011;5118;48.570;7.916;2022-09-03T04:30:25;4.70;;;4.30;;
10154;SDS011;5118;48.570;7.916;2022-09-03T04:32:54;5.13;;;4.30;;
10154;SDS011;5118;48.570;7.916;2022-09-03T04:35:23;6.33;;;4.40;;
10154;SDS011;5118;48.570;7.916;2022-09-03T04:37:54;5.57;;;4.30;;
10154;SDS011;5118;48.570;7.916;2022-09-03T04:40:24;5.60;;;4.60;;
10154;SDS011;5118;48.570;7.916;2022-09-03T04:42:56;5.10;;;4.10;;
10154;SDS011;5118;48.570;7.916;2022-09-03T04:45:26;5.07;;;4.60;;
10154;SDS011;5118;48.570;7.916;2022-09-03T04:47:55;5.27;;;4.13;;
10154;SDS011;5118;48.570;7.916;2022-09-03T04:50:25;5.37;;;4.70;;
10154;SDS011;5118;48.570;7.916;2022-09-03T04:52:58;5.20;;;4.67;;
10154;SDS011;5118;48.570;7.916;2022-09-03T04:55:33;6.07;;;5.00;;
10154;SDS011;5118;48.570;7.916;2022-09-03T04:58:04;4.70;;;4.30;;
10154;SDS011;5118;48.570;7.916;2022-09-03T05:00:34;5.57;;;4.60;;
10154;SDS011;5118;48.570;7.916;2022-09-03T05:03:04;5.70;;;4.60;;
10154;SDS011;5118;48.570;7.916;2022-09-03T05:05:32;6.20;;;4.70;;
10154;SDS011;5118;48.570;7.916;2022-09-03T05:08:01;5.67;;;4.50;;
10154;SDS011;5118;48.570;7.916;2022-09-03T05:10:30;5.93;;;4.30;;
10154;SDS011;5118;48.570;7.916;2022-09-03T05:12:59;5.77;;;4.67;;
10154;SDS011;5118;48.570;7.916;2022-09-03T05:15:29;5.27;;;4.70;;
10154;SDS011;5118;48.570;7.916;2022-09-03T05:18:00;5.83;;;4.73;;
10154;SDS011;5118;48.570;7.916;2022-09-03T05:20:29;4.90;;;4.50;;
10154;SDS011;5118;48.570;7.916;2022-09-03T05:23:00;5.73;;;5.00;;
10154;SDS011;5118;48.570;7.916;2022-09-03T05:25:29;5.40;;;4.90;;
10154;SDS011;5118;48.570;7.916;2022-09-03T05:27:59;5.17;;;4.63;;
10154;SDS011;5118;48.570;7.916;2022-09-03T05:30:29;5.60;;;4.80;;
10154;SDS011;5118;48.570;7.916;2022-09-03T05:32:58;5.00;;;4.60;;
10154;SDS011;5118;48.570;7.916;2022-09-03T05:35:27;5.50;;;4.60;;
10154;SDS011;5118;48.570;7.916;2022-09-03T05:37:56;5.27;;;4.57;;
10154;SDS011;5118;48.570;7.916;2022-09-03T05:40:25;5.63;;;4.80;;
10154;SDS011;5118;48.570;7.916;2022-09-03T05:42:54;6.70;;;4.97;;
10154;SDS011;5118;48.570;7.916;2022-09-03T05:45:25;5.63;;;4.90;;
10154;SDS011;5118;48.570;7.916;2022-09-03T05:47:55;6.37;;;5.13;;
10154;SDS011;5118;48.570;7.916;2022-09-03T05:50:27;5.93;;;5.07;;
10154;SDS011;5118;48.570;7.916;2022-09-03T05:52:57;7.47;;;6.73;;
10154;SDS011;5118;48.570;7.916;2022-09-03T05:55:26;5.87;;;5.37;;
10154;SDS011;5118;48.570;7.916;2022-09-03T05:57:55;6.20;;;5.60;;
10154;SDS011;5118;48.570;7.916;2022-09-03T06:00:23;7.77;;;5.57;;
10154;SDS011;5118;48.570;7.916;2022-09-03T06:02:52;6.30;;;5.30;;
10154;SDS011;5118;48.570;7.916;2022-09-03T06:05:23;7.07;;;5.10;;
10154;SDS011;5118;48.570;7.916;2022-09-03T06:07:52;7.97;;;5.03;;
10154;SDS011;5118;48.570;7.916;2022-09-03T06:10:23;5.67;;;4.50;;
10154;SDS011;5118;48.570;7.916;2022-09-03T06:13:04;7.83;;;4.93;;
10154;SDS011;5118;48.570;7.916;2022-09-03T06:15:33;6.00;;;4.97;;
10154;SDS011;5118;48.570;7.916;2022-09-03T06:18:05;7.83;;;5.27;;
10154;SDS011;5118;48.570;7.916;2022-09-03T06:20:34;7.17;;;5.17;;
10154;SDS011;5118;48.570;7.916;2022-09-03T06:23:03;5.37;;;4.87;;
10154;SDS011;5118;48.570;7.916;2022-09-03T06:25:33;5.47;;;4.70;;
10154;SDS011;5118;48.570;7.916;2022-09-03T06:28:02;5.50;;;5.00;;
10154;SDS011;5118;48.570;7.916;2022-09-03T06:30:35;5.20;;;4.80;;
10154;SDS011;5118;48.570;7.916;2022-09-03T06:33:05;5.20;;;4.67;;
10154;SDS011;5118;48.570;7.916;2022-09-03T06:35:35;6.10;;;5.00;;
10154;SDS011;5118;48.570;7.916;2022-09-03T06:38:09;5.57;;;4.77;;
10154;SDS011;5118;48.570;7.916;2022-09-03T06:40:38;4.83;;;4.43;;
10154;SDS011;5118;48.570;7.916;2022-09-03T06:43:06;5.13;;;4.70;;
10154;SDS011;5118;48.570;7.916;2022-09-03T06:45:36;5.87;;;4.20;;
10154;SDS011;5118;48.570;7.916;2022-09-03T06:48:06;5.40;;;4.40;;
10154;SDS011;5118;48.570;7.916;2022-09-03T06:50:35;5.27;;;4.57;;
10154;SDS011;5118;48.570;7.916;2022-09-03T06:53:03;4.87;;;4.47;;
10154;SDS011;5118;48.570;7.916;2022-09-03T06:55:32;4.63;;;4.23;;
10154;SDS011;5118;48.570;7.916;2022-09-03T06:58:01;4.78;;;4.38;;
10154;SDS011;5118;48.570;7.916;2022-09-03T07:00:29;4.80;;;4.40;;
10154;SDS011;5118;48.570;7.916;2022-09-03T07:02:58;5.15;;;4.10;;
10154;SDS011;5118;48.570;7.916;2022-09-03T07:05:29;5.00;;;4.20;;
10154;SDS011;5118;48.570;7.916;2022-09-03T07:07:58;4.45;;;4.05;;
10154;SDS011;5118;48.570;7.916;2022-09-03T07:10:27;4.50;;;4.00;;
10154;SDS011;5118;48.570;7.916;2022-09-03T07:12:56;4.53;;;4.10;;
10154;SDS011;5118;48.570;7.916;2022-09-03T07:15:24;5.43;;;4.05;;
10154;SDS011;5118;48.570;7.916;2022-09-03T07:17:53;5.53;;;4.10;;
10154;SDS011;5118;48.570;7.916;2022-09-03T07:20:21;4.25;;;3.95;;
10154;SDS011;5118;48.570;7.916;2022-09-03T07:22:53;4.93;;;3.88;;
10154;SDS011;5118;48.570;7.916;2022-09-03T07:25:23;4.75;;;4.10;;
10154;SDS011;5118;48.570;7.916;2022-09-03T07:27:52;4.20;;;3.75;;
10154;SDS011;5118;48.570;7.916;2022-09-03T07:30:21;6.60;;;3.65;;
10154;SDS011;5118;48.570;7.916;2022-09-03T07:32:52;4.07;;;3.67;;
10154;SDS011;5118;48.570;7.916;2022-09-03T07:35:21;4.40;;;4.00;;
10154;SDS011;5118;48.570;7.916;2022-09-03T07:37:52;4.25;;;3.90;;
10154;SDS011;5118;48.570;7.916;2022-09-03T07:40:21;5.00;;;3.30;;
10154;SDS011;5118;48.570;7.916;2022-09-03T07:42:55;4.95;;;3.88;;
10154;SDS011;5118;48.570;7.916;2022-09-03T07:45:24;6.10;;;4.05;;
10154;SDS011;5118;48.570;7.916;2022-09-03T07:47:54;5.38;;;3.78;;
10154;SDS011;5118;48.570;7.916;2022-09-03T07:50:23;5.10;;;3.90;;
10154;SDS011;5118;48.570;7.916;2022-09-03T07:52:56;5.20;;;4.25;;
10154;SDS011;5118;48.570;7.916;2022-09-03T07:55:25;4.15;;;3.75;;
10154;SDS011;5118;48.570;7.916;2022-09-03T07:57:54;6.07;;;4.10;;
10154;SDS011;5118;48.570;7.916;2022-09-03T08:00:23;4.38;;;4.00;;
10154;SDS011;5118;48.570;7.916;2022-09-03T08:02:55;4.35;;;3.95;;
10154;SDS011;5118;48.570;7.916;2022-09-03T08:05:27;4.20;;;3.80;;
10154;SDS011;5118;48.570;7.916;2022-09-03T08:07:57;4.32;;;4.00;;
10154;SDS011;5118;48.570;7.916;2022-09-03T08:10:28;6.35;;;4.00;;
10154;SDS011;5118;48.570;7.916;2022-09-03T08:12:58;4.40;;;3.97;;
10154;SDS011;5118;48.570;7.916;2022-09-03T08:15:31;4.25;;;3.70;;
10154;SDS011;5118;48.570;7.916;2022-09-03T08:18:03;4.38;;;3.92;;
10154;SDS011;5118;48.570;7.916;2022-09-03T08:20:32;4.47;;;4.07;;
10154;SDS011;5118;48.570;7.916;2022-09-03T08:23:03;4.68;;;4.00;;
10154;SDS011;5118;48.570;7.916;2022-09-03T08:25:32;4.90;;;4.40;;
10154;SDS011;5118;48.570;7.916;2022-09-03T08:28:02;4.70;;;4.00;;
10154;SDS011;5118;48.570;7.916;2022-09-03T08:30:31;11.10;;;4.47;;
10154;SDS011;5118;48.570;7.916;2022-09-03T08:33:00;9.43;;;4.90;;
10154;SDS011;5118;48.570;7.916;2022-09-03T08:35:33;5.80;;;4.63;;
10154;SDS011;5118;48.570;7.916;2022-09-03T08:38:05;6.40;;;4.65;;
10154;SDS011;5118;48.570;7.916;2022-09-03T08:40:36;5.10;;;4.60;;
10154;SDS011;5118;48.570;7.916;2022-09-03T08:43:07;6.05;;;5.45;;
10154;SDS011;5118;48.570;7.916;2022-09-03T08:45:39;6.07;;;5.57;;
10154;SDS011;5118;48.570;7.916;2022-09-03T08:48:09;5.43;;;4.93;;
10154;SDS011;5118;48.570;7.916;2022-09-03T08:50:41;5.50;;;4.93;;
10154;SDS011;5118;48.570;7.916;2022-09-03T08:53:18;5.63;;;5.13;;
10154;SDS011;5118;48.570;7.916;2022-09-03T08:55:50;6.28;;;4.78;;
10154;SDS011;5118;48.570;7.916;2022-09-03T08:58:21;5.60;;;5.03;;
10154;SDS011;5118;48.570;7.916;2022-09-03T09:00:53;5.32;;;4.82;;
10154;SDS011;5118;48.570;7.916;2022-09-03T09:03:44;5.90;;;5.10;;
10154;SDS011;5118;48.570;7.916;2022-09-03T09:06:20;5.22;;;4.80;;
10154;SDS011;5118;48.570;7.916;2022-09-03T09:09:00;6.70;;;5.05;;
10154;SDS011;5118;48.570;7.916;2022-09-03T09:11:37;7.93;;;5.13;;
10154;SDS011;5118;48.570;7.916;2022-09-03T09:14:16;5.63;;;5.07;;
10154;SDS011;5118;48.570;7.916;2022-09-03T09:16:53;6.45;;;5.45;;
10154;SDS011;5118;48.570;7.916;2022-09-03T09:19:33;6.13;;;5.53;;
10154;SDS011;5118;48.570;7.916;2022-09-03T09:22:09;5.82;;;5.22;;
10154;SDS011;5118;48.570;7.916;2022-09-03T09:24:43;6.43;;;5.75;;
10154;SDS011;5118;48.570;7.916;2022-09-03T09:27:14;8.23;;;5.50;;
10154;SDS011;5118;48.570;7.916;2022-09-03T09:29:45;5.07;;;4.68;;
10154;SDS011;5118;48.570;7.916;2022-09-03T09:32:18;5.45;;;4.95;;
10154;SDS011;5118;48.570;7.916;2022-09-03T09:34:47;7.78;;;5.20;;
10154;SDS011;5118;48.570;7.916;2022-09-03T09:37:18;5.57;;;4.50;;
10154;SDS011;5118;48.570;7.916;2022-09-03T09:39:56;5.28;;;4.78;;
10154;SDS011;5118;48.570;7.916;2022-09-03T09:42:27;5.05;;;4.60;;
10154;SDS011;5118;48.570;7.916;2022-09-03T09:45:07;4.82;;;4.22;;
10154;SDS011;5118;48.570;7.916;2022-09-03T09:47:37;5.03;;;4.25;;
10154;SDS011;5118;48.570;7.916;2022-09-03T09:50:15;4.47;;;4.05;;
10154;SDS011;5118;48.570;7.916;2022-09-03T09:52:59;5.75;;;4.70;;
10154;SDS011;5118;48.570;7.916;2022-09-03T09:55:37;4.85;;;4.43;;
10154;SDS011;5118;48.570;7.916;2022-09-03T09:58:18;5.40;;;4.90;;
10154;SDS011;5118;48.570;7.916;2022-09-03T10:00:58;4.35;;;4.05;;
10154;SDS011;5118;48.570;7.916;2022-09-03T10:03:33;4.40;;;4.00;;
10154;SDS011;5118;48.570;7.916;2022-09-03T10:06:03;5.32;;;4.03;;
10154;SDS011;5118;48.570;7.916;2022-09-03T10:08:52;4.10;;;3.80;;
10154;SDS011;5118;48.570;7.916;2022-09-03T10:11:33;4.72;;;4.22;;
10154;SDS011;5118;48.570;7.916;2022-09-03T10:14:09;4.32;;;3.92;;
10154;SDS011;5118;48.570;7.916;2022-09-03T10:16:46;5.30;;;4.13;;
10154;SDS011;5118;48.570;7.916;2022-09-03T10:19:21;5.10;;;4.60;;
10154;SDS011;5118;48.570;7.916;2022-09-03T10:22:01;5.38;;;4.18;;
10154;SDS011;5118;48.570;7.916;2022-09-03T10:24:37;4.18;;;3.88;;
10154;SDS011;5118;48.570;7.916;2022-09-03T10:27:16;5.43;;;4.20;;
10154;SDS011;5118;48.570;7.916;2022-09-03T10:29:48;4.68;;;4.28;;
10154;SDS011;5118;48.570;7.916;2022-09-03T10:32:24;4.50;;;4.03;;
10154;SDS011;5118;48.570;7.916;2022-09-03T10:35:09;4.38;;;4.00;;
10154;SDS011;5118;48.570;7.916;2022-09-03T10:37:48;4.55;;;4.15;;
10154;SDS011;5118;48.570;7.916;2022-09-03T10:40:24;5.13;;;4.63;;
10154;SDS011;5118;48.570;7.916;2022-09-03T10:43:03;4.55;;;4.15;;
10154;SDS011;5118;48.570;7.916;2022-09-03T10:45:45;4.35;;;4.05;;
10154;SDS011;5118;48.570;7.916;2022-09-03T10:51:22;4.95;;;4.45;;
10154;SDS011;5118;48.570;7.916;2022-09-03T10:53:58;4.75;;;4.35;;
10154;SDS011;5118;48.570;7.916;2022-09-03T10:56:40;4.90;;;4.38;;
10154;SDS011;5118;48.570;7.916;2022-09-03T10:59:35;6.85;;;4.93;;
10154;SDS011;5118;48.570;7.916;2022-09-03T11:02:20;5.20;;;4.80;;
10154;SDS011;5118;48.570;7.916;2022-09-03T11:05:04;4.70;;;4.30;;
10154;SDS011;5118;48.570;7.916;2022-09-03T11:07:38;4.93;;;4.53;;
10154;SDS011;5118;48.570;7.916;2022-09-03T11:10:13;5.97;;;4.97;;
10154;SDS011;5118;48.570;7.916;2022-09-03T11:12:49;5.25;;;4.85;;
10154;SDS011;5118;48.570;7.916;2022-09-03T11:15:28;5.53;;;5.03;;
10154;SDS011;5118;48.570;7.916;2022-09-03T11:18:04;4.85;;;4.45;;
10154;SDS011;5118;48.570;7.916;2022-09-03T11:20:46;6.50;;;4.80;;
10154;SDS011;5118;48.570;7.916;2022-09-03T11:23:19;5.18;;;4.78;;
10154;SDS011;5118;48.570;7.916;2022-09-03T11:25:53;6.18;;;5.13;;
10154;SDS011;5118;48.570;7.916;2022-09-03T11:28:26;1.15;;;1.15;;
10154;SDS011;5118;48.570;7.916;2022-09-03T11:31:08;1.30;;;1.20;;
10154;SDS011;5118;48.570;7.916;2022-09-03T11:33:44;1.65;;;1.55;;
10154;SDS011;5118;48.570;7.916;2022-09-03T11:36:22;1.33;;;1.13;;
10154;SDS011;5118;48.570;7.916;2022-09-03T11:38:56;1.70;;;1.08;;
10154;SDS011;5118;48.570;7.916;2022-09-03T11:41:26;1.20;;;1.10;;
10154;SDS011;5118;48.570;7.916;2022-09-03T11:44:09;2.55;;;0.90;;
10154;SDS011;5118;48.570;7.916;2022-09-03T11:46:54;1.00;;;1.00;;
10154;SDS011;5118;48.570;7.916;2022-09-03T11:49:26;1.05;;;1.05;;
10154;SDS011;5118;48.570;7.916;2022-09-03T11:52:00;1.13;;;1.02;;
10154;SDS011;5118;48.570;7.916;2022-09-03T11:54:31;2.13;;;1.20;;
10154;SDS011;5118;48.570;7.916;2022-09-03T11:57:11;1.40;;;1.10;;
10154;SDS011;5118;48.570;7.916;2022-09-03T11:59:41;1.65;;;1.30;;
10154;SDS011;5118;48.570;7.916;2022-09-03T12:02:15;1.48;;;1.10;;
10154;SDS011;5118;48.570;7.916;2022-09-03T12:04:57;2.08;;;1.25;;
10154;SDS011;5118;48.570;7.916;2022-09-03T12:07:54;4.03;;;1.10;;
10154;SDS011;5118;48.570;7.916;2022-09-03T12:10:37;1.98;;;1.00;;
10154;SDS011;5118;48.570;7.916;2022-09-03T12:13:19;1.25;;;1.10;;
10154;SDS011;5118;48.570;7.916;2022-09-03T12:19:02;0.85;;;0.85;;
10154;SDS011;5118;48.570;7.916;2022-09-03T12:21:38;1.70;;;1.00;;
10154;SDS011;5118;48.570;7.916;2022-09-03T12:24:09;1.15;;;0.90;;
10154;SDS011;5118;48.570;7.916;2022-09-03T12:26:39;1.08;;;0.98;;
10154;SDS011;5118;48.570;7.916;2022-09-03T12:29:20;0.90;;;0.90;;
10154;SDS011;5118;48.570;7.916;2022-09-03T12:31:54;1.00;;;1.00;;
10154;SDS011;5118;48.570;7.916;2022-09-03T12:34:24;0.80;;;0.80;;
10154;SDS011;5118;48.570;7.916;2022-09-03T12:36:54;0.80;;;0.80;;
10154;SDS011;5118;48.570;7.916;2022-09-03T12:39:23;0.77;;;0.77;;
10154;SDS011;5118;48.570;7.916;2022-09-03T12:42:17;1.20;;;1.05;;
10154;SDS011;5118;48.570;7.916;2022-09-03T12:44:50;1.27;;;0.90;;
10154;SDS011;5118;48.570;7.916;2022-09-03T12:47:20;0.90;;;0.90;;
10154;SDS011;5118;48.570;7.916;2022-09-03T12:50:07;1.27;;;1.17;;
10154;SDS011;5118;48.570;7.916;2022-09-03T12:52:38;0.98;;;0.93;;
10154;SDS011;5118;48.570;7.916;2022-09-03T12:55:16;1.73;;;1.00;;
10154;SDS011;5118;48.570;7.916;2022-09-03T12:57:59;0.70;;;0.70;;
10154;SDS011;5118;48.570;7.916;2022-09-03T13:00:40;2.38;;;1.00;;
10154;SDS011;5118;48.570;7.916;2022-09-03T13:03:14;0.75;;;0.75;;
10154;SDS011;5118;48.570;7.916;2022-09-03T13:05:47;1.13;;;1.10;;
10154;SDS011;5118;48.570;7.916;2022-09-03T13:08:22;0.70;;;0.70;;
10154;SDS011;5118;48.570;7.916;2022-09-03T13:10:54;2.00;;;0.80;;
10154;SDS011;5118;48.570;7.916;2022-09-03T13:13:25;2.70;;;0.80;;
10154;SDS011;5118;48.570;7.916;2022-09-03T13:15:59;0.85;;;0.85;;
10154;SDS011;5118;48.570;7.916;2022-09-03T13:18:52;1.08;;;0.85;;
10154;SDS011;5118;48.570;7.916;2022-09-03T13:21:31;0.90;;;0.90;;
10154;SDS011;5118;48.570;7.916;2022-09-03T13:24:15;0.90;;;0.90;;
10154;SDS011;5118;48.570;7.916;2022-09-03T13:26:55;1.10;;;1.00;;
10154;SDS011;5118;48.570;7.916;2022-09-03T13:29:38;1.23;;;0.90;;
10154;SDS011;5118;48.570;7.916;2022-09-03T13:32:22;1.05;;;0.68;;
10154;SDS011;5118;48.570;7.916;2022-09-03T13:35:01;1.73;;;0.90;;
10154;SDS011;5118;48.570;7.916;2022-09-03T13:37:36;1.40;;;1.20;;
10154;SDS011;5118;48.570;7.916;2022-09-03T13:40:13;0.80;;;0.80;;
10154;SDS011;5118;48.570;7.916;2022-09-03T13:42:48;0.93;;;0.93;;
10154;SDS011;5118;48.570;7.916;2022-09-03T13:45:26;1.00;;;1.00;;
10154;SDS011;5118;48.570;7.916;2022-09-03T13:47:58;1.20;;;0.88;;
10154;SDS011;5118;48.570;7.916;2022-09-03T13:50:51;0.90;;;0.90;;
10154;SDS011;5118;48.570;7.916;2022-09-03T13:53:29;0.98;;;0.93;;
10154;SDS011;5118;48.570;7.916;2022-09-03T13:56:13;1.08;;;0.98;;
10154;SDS011;5118;48.570;7.916;2022-09-03T13:58:49;1.10;;;1.10;;
10154;SDS011;5118;48.570;7.916;2022-09-03T14:01:25;2.58;;;1.10;;
10154;SDS011;5118;48.570;7.916;2022-09-03T14:04:09;1.00;;;1.00;;
10154;SDS011;5118;48.570;7.916;2022-09-03T14:06:41;1.92;;;1.08;;
10154;SDS011;5118;48.570;7.916;2022-09-03T14:09:19;1.30;;;1.20;;
10154;SDS011;5118;48.570;7.916;2022-09-03T14:12:01;1.15;;;1.15;;
10154;SDS011;5118;48.570;7.916;2022-09-03T14:14:39;1.55;;;1.25;;
10154;SDS011;5118;48.570;7.916;2022-09-03T14:17:13;1.42;;;1.10;;
10154;SDS011;5118;48.570;7.916;2022-09-03T14:19:47;3.00;;;1.30;;
10154;SDS011;5118;48.570;7.916;2022-09-03T14:22:23;1.90;;;1.20;;
10154;SDS011;5118;48.570;7.916;2022-09-03T14:24:58;1.25;;;1.10;;
10154;SDS011;5118;48.570;7.916;2022-09-03T14:27:30;1.35;;;1.25;;
10154;SDS011;5118;48.570;7.916;2022-09-03T14:30:01;0.90;;;0.90;;
10154;SDS011;5118;48.570;7.916;2022-09-03T14:32:37;1.67;;;1.00;;
10154;SDS011;5118;48.570;7.916;2022-09-03T14:35:16;0.95;;;0.95;;
10154;SDS011;5118;48.570;7.916;2022-09-03T14:41:03;1.60;;;1.10;;
10154;SDS011;5118;48.570;7.916;2022-09-03T14:46:39;1.05;;;1.05;;
10154;SDS011;5118;48.570;7.916;2022-09-03T14:49:19;1.33;;;0.90;;
10154;SDS011;5118;48.570;7.916;2022-09-03T14:52:21;1.00;;;0.98;;
10154;SDS011;5118;48.570;7.916;2022-09-03T14:55:12;1.35;;;1.20;;
10154;SDS011;5118;48.570;7.916;2022-09-03T14:57:57;1.40;;;1.13;;
10154;SDS011;5118;48.570;7.916;2022-09-03T15:00:41;1.00;;;1.00;;
10154;SDS011;5118;48.570;7.916;2022-09-03T15:03:20;0.98;;;0.98;;
10154;SDS011;5118;48.570;7.916;2022-09-03T15:06:10;0.90;;;0.90;;
10154;SDS011;5118;48.570;7.916;2022-09-03T15:09:09;1.00;;;1.00;;
10154;SDS011;5118;48.570;7.916;2022-09-03T15:11:46;1.00;;;1.00;;
10154;SDS011;5118;48.570;7.916;2022-09-03T15:14:23;1.33;;;1.10;;
10154;SDS011;5118;48.570;7.916;2022-09-03T15:16:58;1.20;;;1.10;;
10154;SDS011;5118;48.570;7.916;2022-09-03T15:22:38;1.83;;;1.10;;
10154;SDS011;5118;48.570;7.916;2022-09-03T15:25:18;1.10;;;1.10;;
10154;SDS011;5118;48.570;7.916;2022-09-03T15:28:00;1.15;;;1.10;;
10154;SDS011;5118;48.570;7.916;2022-09-03T15:30:42;1.13;;;1.05;;
10154;SDS011;5118;48.570;7.916;2022-09-03T15:33:22;1.35;;;1.15;;
10154;SDS011;5118;48.570;7.916;2022-09-03T15:35:59;1.10;;;1.00;;
10154;SDS011;5118;48.570;7.916;2022-09-03T15:38:39;0.95;;;0.95;;
10154;SDS011;5118;48.570;7.916;2022-09-03T15:41:18;1.10;;;1.10;;
10154;SDS011;5118;48.570;7.916;2022-09-03T15:43:58;1.30;;;1.20;;
10154;SDS011;5118;48.570;7.916;2022-09-03T15:46:44;0.90;;;0.90;;
10154;SDS011;5118;48.570;7.916;2022-09-03T15:52:17;1.92;;;1.10;;
10154;SDS011;5118;48.570;7.916;2022-09-03T15:55:01;1.00;;;1.00;;
10154;SDS011;5118;48.570;7.916;2022-09-03T15:57:37;1.25;;;1.15;;
10154;SDS011;5118;48.570;7.916;2022-09-03T16:00:12;1.30;;;1.10;;
10154;SDS011;5118;48.570;7.916;2022-09-03T16:02:52;0.98;;;0.98;;